sensor_id;sensor_type;location;lat;lon;timestamp;pressure;altitude;pressure_sealevel;temperature;humidity
40918;BME280;26644;50.248;19.032;2023-02-19T00:01:12;97885.59;;;7.04;79.82
40918;BME280;26644;50.248;19.032;2023-02-19T00:04:21;97882.84;;;7.04;79.75
40918;BME280;26644;50.248;19.032;2023-02-19T00:07:27;97884.22;;;7.02;80.18
40918;BME280;26644;50.248;19.032;2023-02-19T00:10:32;97876.56;;;6.99;80.07
40918;BME280;26644;50.248;19.032;2023-02-19T00:13:40;97845.66;;;6.72;80.64
40918;BME280;26644;50.248;19.032;2023-02-19T00:16:47;97865.06;;;6.81;81.23
40918;BME280;26644;50.248;19.032;2023-02-19T00:19:55;97866.19;;;6.85;81.35
40918;BME280;26644;50.248;19.032;2023-02-19T00:23:00;97874.38;;;6.90;81.78
40918;BME280;26644;50.248;19.032;2023-02-19T00:26:08;97868.63;;;6.87;82.37
40918;BME280;26644;50.248;19.032;2023-02-19T00:29:18;97855.22;;;6.75;83.17
40918;BME280;26644;50.248;19.032;2023-02-19T00:32:27;97868.03;;;6.79;84.10
40918;BME280;26644;50.248;19.032;2023-02-19T00:35:35;97865.28;;;6.64;84.65
40918;BME280;26644;50.248;19.032;2023-02-19T00:38:42;97871.84;;;6.68;84.81
40918;BME280;26644;50.248;19.032;2023-02-19T00:41:48;97838.78;;;6.54;84.79
40918;BME280;26644;50.248;19.032;2023-02-19T00:44:54;97861.47;;;6.70;84.50
40918;BME280;26644;50.248;19.032;2023-02-19T00:47:59;97864.50;;;6.74;84.15
40918;BME280;26644;50.248;19.032;2023-02-19T00:51:07;97851.34;;;6.55;83.48
40918;BME280;26644;50.248;19.032;2023-02-19T00:54:13;97846.19;;;6.59;83.28
40918;BME280;26644;50.248;19.032;2023-02-19T00:57:19;97846.44;;;6.57;82.41
40918;BME280;26644;50.248;19.032;2023-02-19T01:00:24;97856.03;;;6.70;82.17
40918;BME280;26644;50.248;19.032;2023-02-19T01:03:30;97865.34;;;6.74;82.08
40918;BME280;26644;50.248;19.032;2023-02-19T01:06:38;97847.31;;;6.73;82.11
40918;BME280;26644;50.248;19.032;2023-02-19T01:09:44;97862.34;;;6.76;82.67
40918;BME280;26644;50.248;19.032;2023-02-19T01:12:49;97854.41;;;6.74;82.89
40918;BME280;26644;50.248;19.032;2023-02-19T01:16:02;97845.34;;;6.64;83.63
40918;BME280;26644;50.248;19.032;2023-02-19T01:19:07;97844.84;;;6.67;84.07
40918;BME280;26644;50.248;19.032;2023-02-19T01:22:16;97841.81;;;6.58;84.76
40918;BME280;26644;50.248;19.032;2023-02-19T01:25:21;97834.69;;;6.47;85.26
40918;BME280;26644;50.248;19.032;2023-02-19T01:28:26;97837.69;;;6.50;85.52
40918;BME280;26644;50.248;19.032;2023-02-19T01:31:31;97828.94;;;6.43;86.07
40918;BME280;26644;50.248;19.032;2023-02-19T01:34:38;97829.47;;;6.45;86.18
40918;BME280;26644;50.248;19.032;2023-02-19T01:37:45;97823.78;;;6.47;86.28
40918;BME280;26644;50.248;19.032;2023-02-19T01:40:55;97825.41;;;6.53;85.96
40918;BME280;26644;50.248;19.032;2023-02-19T01:44:02;97794.31;;;6.43;85.98
40918;BME280;26644;50.248;19.032;2023-02-19T01:47:11;97811.81;;;6.58;85.81
40918;BME280;26644;50.248;19.032;2023-02-19T01:50:19;97815.59;;;6.57;85.57
40918;BME280;26644;50.248;19.032;2023-02-19T01:53:32;97812.63;;;6.64;85.84
40918;BME280;26644;50.248;19.032;2023-02-19T01:56:42;97797.34;;;6.52;85.70
40918;BME280;26644;50.248;19.032;2023-02-19T01:59:55;97789.72;;;6.59;85.88
40918;BME280;26644;50.248;19.032;2023-02-19T02:03:13;97789.97;;;6.58;85.87
40918;BME280;26644;50.248;19.032;2023-02-19T02:06:22;97782.59;;;6.48;85.95
40918;BME280;26644;50.248;19.032;2023-02-19T02:09:32;97787.53;;;6.56;86.03
40918;BME280;26644;50.248;19.032;2023-02-19T02:12:55;97792.44;;;6.59;86.02
40918;BME280;26644;50.248;19.032;2023-02-19T02:16:16;97786.16;;;6.59;85.72
40918;BME280;26644;50.248;19.032;2023-02-19T02:19:53;97781.53;;;6.59;85.71
40918;BME280;26644;50.248;19.032;2023-02-19T02:23:31;97777.69;;;6.55;85.59
40918;BME280;26644;50.248;19.032;2023-02-19T02:26:57;97782.88;;;6.57;85.55
40918;BME280;26644;50.248;19.032;2023-02-19T02:30:37;97759.72;;;6.49;85.63
40918;BME280;26644;50.248;19.032;2023-02-19T02:33:54;97774.72;;;6.62;85.38
40918;BME280;26644;50.248;19.032;2023-02-19T02:37:08;97774.47;;;6.58;85.34
40918;BME280;26644;50.248;19.032;2023-02-19T02:40:17;97773.34;;;6.59;85.63
40918;BME280;26644;50.248;19.032;2023-02-19T02:43:23;97757.53;;;6.56;85.86
40918;BME280;26644;50.248;19.032;2023-02-19T02:46:35;97761.91;;;6.62;85.73
40918;BME280;26644;50.248;19.032;2023-02-19T02:49:44;97756.44;;;6.57;85.72
40918;BME280;26644;50.248;19.032;2023-02-19T02:53:12;97766.25;;;6.53;85.71
40918;BME280;26644;50.248;19.032;2023-02-19T02:56:36;97761.31;;;6.50;86.10
40918;BME280;26644;50.248;19.032;2023-02-19T02:59:46;97752.88;;;6.47;86.29
40918;BME280;26644;50.248;19.032;2023-02-19T03:02:58;97745.22;;;6.49;86.26
40918;BME280;26644;50.248;19.032;2023-02-19T03:06:06;97742.78;;;6.47;86.26
40918;BME280;26644;50.248;19.032;2023-02-19T03:09:20;97747.44;;;6.52;86.54
40918;BME280;26644;50.248;19.032;2023-02-19T03:12:35;97729.13;;;6.42;85.84
40918;BME280;26644;50.248;19.032;2023-02-19T03:16:00;97747.44;;;6.52;85.96
40918;BME280;26644;50.248;19.032;2023-02-19T03:19:27;97756.72;;;6.56;85.74
40918;BME280;26644;50.248;19.032;2023-02-19T03:22:41;97741.44;;;6.55;85.43
40918;BME280;26644;50.248;19.032;2023-02-19T03:25:49;97749.34;;;6.56;85.25
40918;BME280;26644;50.248;19.032;2023-02-19T03:29:14;97749.06;;;6.58;85.01
40918;BME280;26644;50.248;19.032;2023-02-19T03:32:41;97745.22;;;6.49;84.96
40918;BME280;26644;50.248;19.032;2023-02-19T03:35:57;97751.78;;;6.53;85.18
40918;BME280;26644;50.248;19.032;2023-02-19T03:39:13;97748.81;;;6.49;84.97
40918;BME280;26644;50.248;19.032;2023-02-19T03:42:34;97741.97;;;6.41;85.33
40918;BME280;26644;50.248;19.032;2023-02-19T03:45:54;97733.75;;;6.36;85.50
40918;BME280;26644;50.248;19.032;2023-02-19T03:49:09;97742.50;;;6.49;85.33
40918;BME280;26644;50.248;19.032;2023-02-19T03:52:37;97732.94;;;6.41;85.32
40918;BME280;26644;50.248;19.032;2023-02-19T03:56:02;97743.06;;;6.45;85.33
40918;BME280;26644;50.248;19.032;2023-02-19T03:59:19;97740.59;;;6.44;85.13
40918;BME280;26644;50.248;19.032;2023-02-19T04:02:39;97731.06;;;6.41;85.36
40918;BME280;26644;50.248;19.032;2023-02-19T04:05:54;97729.97;;;6.42;85.91
40918;BME280;26644;50.248;19.032;2023-02-19T04:09:11;97721.78;;;6.42;85.80
40918;BME280;26644;50.248;19.032;2023-02-19T04:12:25;97718.47;;;6.30;85.72
40918;BME280;26644;50.248;19.032;2023-02-19T04:15:33;97709.75;;;6.28;86.05
40918;BME280;26644;50.248;19.032;2023-02-19T04:18:45;97732.94;;;6.36;86.45
40918;BME280;26644;50.248;19.032;2023-02-19T04:21:56;97706.47;;;6.26;86.65
40918;BME280;26644;50.248;19.032;2023-02-19T04:25:07;97714.38;;;6.27;86.65
40918;BME280;26644;50.248;19.032;2023-02-19T04:28:13;97723.13;;;6.35;87.08
40918;BME280;26644;50.248;19.032;2023-02-19T04:31:20;97724.22;;;6.34;86.98
40918;BME280;26644;50.248;19.032;2023-02-19T04:34:26;97717.13;;;6.33;87.46
40918;BME280;26644;50.248;19.032;2023-02-19T04:37:32;97699.66;;;6.23;87.17
40918;BME280;26644;50.248;19.032;2023-02-19T04:40:39;97693.13;;;6.30;87.55
40918;BME280;26644;50.248;19.032;2023-02-19T04:43:45;97708.66;;;6.29;88.10
40918;BME280;26644;50.248;19.032;2023-02-19T04:46:50;97693.13;;;6.30;88.03
40918;BME280;26644;50.248;19.032;2023-02-19T04:49:55;97680.03;;;6.32;88.14
40918;BME280;26644;50.248;19.032;2023-02-19T04:53:00;97683.03;;;6.30;88.07
40918;BME280;26644;50.248;19.032;2023-02-19T04:56:12;97671.84;;;6.21;88.11
40918;BME280;26644;50.248;19.032;2023-02-19T04:59:18;97668.31;;;6.26;88.43
40918;BME280;26644;50.248;19.032;2023-02-19T05:02:24;97663.94;;;6.25;88.41
40918;BME280;26644;50.248;19.032;2023-02-19T05:05:29;97646.78;;;6.30;88.86
40918;BME280;26644;50.248;19.032;2023-02-19T05:08:35;97643.50;;;6.33;88.96
40918;BME280;26644;50.248;19.032;2023-02-19T05:11:43;97637.25;;;6.27;88.32
40918;BME280;26644;50.248;19.032;2023-02-19T05:14:49;97638.88;;;6.33;88.63
40918;BME280;26644;50.248;19.032;2023-02-19T05:17:54;97645.16;;;6.39;88.67
40918;BME280;26644;50.248;19.032;2023-02-19T05:21:00;97634.78;;;6.36;88.37
40918;BME280;26644;50.248;19.032;2023-02-19T05:24:05;97625.25;;;6.33;88.75
40918;BME280;26644;50.248;19.032;2023-02-19T05:27:14;97643.53;;;6.43;88.67
40918;BME280;26644;50.248;19.032;2023-02-19T05:30:19;97623.34;;;6.44;88.62
40918;BME280;26644;50.248;19.032;2023-02-19T05:33:25;97633.97;;;6.45;88.63
40918;BME280;26644;50.248;19.032;2023-02-19T05:36:30;97631.78;;;6.53;88.71
40918;BME280;26644;50.248;19.032;2023-02-19T05:39:38;97639.97;;;6.58;88.27
40918;BME280;26644;50.248;19.032;2023-02-19T05:42:45;97644.06;;;6.66;88.07
40918;BME280;26644;50.248;19.032;2023-02-19T05:45:51;97635.88;;;6.71;87.91
40918;BME280;26644;50.248;19.032;2023-02-19T05:48:56;97640.50;;;6.75;87.54
40918;BME280;26644;50.248;19.032;2023-02-19T05:52:03;97656.06;;;6.80;87.57
40918;BME280;26644;50.248;19.032;2023-02-19T05:55:08;97648.16;;;6.78;87.27
40918;BME280;26644;50.248;19.032;2023-02-19T05:58:17;97636.69;;;6.71;87.68
40918;BME280;26644;50.248;19.032;2023-02-19T06:01:23;97647.31;;;6.78;87.40
40918;BME280;26644;50.248;19.032;2023-02-19T06:04:31;97629.88;;;6.74;87.15
40918;BME280;26644;50.248;19.032;2023-02-19T06:07:36;97629.06;;;6.73;87.38
40918;BME280;26644;50.248;19.032;2023-02-19T06:10:44;97626.63;;;6.77;87.07
40918;BME280;26644;50.248;19.032;2023-02-19T06:13:51;97638.06;;;6.74;86.49
40918;BME280;26644;50.248;19.032;2023-02-19T06:16:57;97647.31;;;6.78;86.42
40918;BME280;26644;50.248;19.032;2023-02-19T06:20:02;97645.72;;;6.77;85.94
40918;BME280;26644;50.248;19.032;2023-02-19T06:23:08;97643.00;;;6.77;85.75
40918;BME280;26644;50.248;19.032;2023-02-19T06:26:15;97648.16;;;6.78;85.34
40918;BME280;26644;50.248;19.032;2023-02-19T06:29:25;97644.06;;;6.76;85.07
40918;BME280;26644;50.248;19.032;2023-02-19T06:32:29;97640.25;;;6.77;84.87
40918;BME280;26644;50.248;19.032;2023-02-19T06:35:35;97640.50;;;6.75;84.93
40918;BME280;26644;50.248;19.032;2023-02-19T06:38:40;97638.06;;;6.74;84.81
40918;BME280;26644;50.248;19.032;2023-02-19T06:41:46;97633.16;;;6.76;85.10
40918;BME280;26644;50.248;19.032;2023-02-19T06:44:54;97629.59;;;6.70;85.47
40918;BME280;26644;50.248;19.032;2023-02-19T06:47:59;97635.59;;;6.77;85.59
40918;BME280;26644;50.248;19.032;2023-02-19T06:51:05;97620.03;;;6.73;85.87
40918;BME280;26644;50.248;19.032;2023-02-19T06:54:12;97627.97;;;6.74;85.93
40918;BME280;26644;50.248;19.032;2023-02-19T06:57:17;97599.06;;;6.58;86.28
40918;BME280;26644;50.248;19.032;2023-02-19T07:00:25;97629.88;;;6.74;86.74
40918;BME280;26644;50.248;19.032;2023-02-19T07:03:30;97622.78;;;6.73;86.83
40918;BME280;26644;50.248;19.032;2023-02-19T07:06:37;97621.69;;;6.69;86.86
40918;BME280;26644;50.248;19.032;2023-02-19T07:09:42;97616.25;;;6.69;87.43
40918;BME280;26644;50.248;19.032;2023-02-19T07:12:48;97618.97;;;6.69;87.75
40918;BME280;26644;50.248;19.032;2023-02-19T07:16:01;97616.25;;;6.64;88.02
40918;BME280;26644;50.248;19.032;2023-02-19T07:19:09;97615.16;;;6.65;88.49
40918;BME280;26644;50.248;19.032;2023-02-19T07:22:15;97616.00;;;6.65;88.80
40918;BME280;26644;50.248;19.032;2023-02-19T07:25:20;97612.16;;;6.66;88.85
40918;BME280;26644;50.248;19.032;2023-02-19T07:28:26;97619.25;;;6.72;88.68
40918;BME280;26644;50.248;19.032;2023-02-19T07:31:34;97621.16;;;6.72;88.86
40918;BME280;26644;50.248;19.032;2023-02-19T07:34:39;97612.97;;;6.67;88.95
40918;BME280;26644;50.248;19.032;2023-02-19T07:37:45;97615.44;;;6.73;88.94
40918;BME280;26644;50.248;19.032;2023-02-19T07:40:50;97611.91;;;6.68;88.96
40918;BME280;26644;50.248;19.032;2023-02-19T07:43:56;97604.75;;;6.82;88.97
40918;BME280;26644;50.248;19.032;2023-02-19T07:47:04;97594.97;;;6.86;88.65
40918;BME280;26644;50.248;19.032;2023-02-19T07:50:10;97586.78;;;6.86;88.38
40918;BME280;26644;50.248;19.032;2023-02-19T07:53:15;97588.09;;;6.94;88.86
40918;BME280;26644;50.248;19.032;2023-02-19T07:56:20;97586.72;;;6.97;88.63
40918;BME280;26644;50.248;19.032;2023-02-19T07:59:25;97582.09;;;7.07;88.51
40918;BME280;26644;50.248;19.032;2023-02-19T08:02:34;97578.53;;;7.12;88.20
40918;BME280;26644;50.248;19.032;2023-02-19T08:05:51;97570.63;;;7.16;88.54
40918;BME280;26644;50.248;19.032;2023-02-19T08:08:57;97579.03;;;7.19;88.25
40918;BME280;26644;50.248;19.032;2023-02-19T08:12:02;97574.72;;;7.18;88.05
40918;BME280;26644;50.248;19.032;2023-02-19T08:15:35;97570.06;;;7.19;88.47
40918;BME280;26644;50.248;19.032;2023-02-19T08:18:43;97580.16;;;7.23;87.85
40918;BME280;26644;50.248;19.032;2023-02-19T08:21:49;97583.13;;;7.27;88.29
40918;BME280;26644;50.248;19.032;2023-02-19T08:24:54;97583.66;;;7.34;88.40
40918;BME280;26644;50.248;19.032;2023-02-19T08:28:00;97582.53;;;7.35;88.12
40918;BME280;26644;50.248;19.032;2023-02-19T08:31:06;97589.41;;;7.33;88.01
40918;BME280;26644;50.248;19.032;2023-02-19T08:34:17;97594.81;;;7.43;88.25
40918;BME280;26644;50.248;19.032;2023-02-19T08:37:22;97592.88;;;7.49;87.95
40918;BME280;26644;50.248;19.032;2023-02-19T08:40:28;97592.59;;;7.55;87.86
40918;BME280;26644;50.248;19.032;2023-02-19T08:43:33;97595.03;;;7.57;87.38
40918;BME280;26644;50.248;19.032;2023-02-19T08:46:39;97609.78;;;7.56;87.48
40918;BME280;26644;50.248;19.032;2023-02-19T08:49:47;97620.72;;;7.51;86.92
40918;BME280;26644;50.248;19.032;2023-02-19T08:52:53;97601.38;;;7.42;86.75
40918;BME280;26644;50.248;19.032;2023-02-19T08:56:03;97610.09;;;7.44;85.13
40918;BME280;26644;50.248;19.032;2023-02-19T08:59:09;97612.03;;;7.38;84.82
40918;BME280;26644;50.248;19.032;2023-02-19T09:02:14;97600.84;;;7.35;84.99
40918;BME280;26644;50.248;19.032;2023-02-19T09:05:22;97612.31;;;7.37;85.28
40918;BME280;26644;50.248;19.032;2023-02-19T09:08:27;97609.84;;;7.35;85.10
40918;BME280;26644;50.248;19.032;2023-02-19T09:11:33;97614.22;;;7.31;84.99
40918;BME280;26644;50.248;19.032;2023-02-19T09:14:38;97618.59;;;7.32;85.00
40918;BME280;26644;50.248;19.032;2023-02-19T09:17:44;97619.44;;;7.33;85.12
40918;BME280;26644;50.248;19.032;2023-02-19T09:20:51;97630.06;;;7.34;85.13
40918;BME280;26644;50.248;19.032;2023-02-19T09:23:58;97628.97;;;7.35;84.85
40918;BME280;26644;50.248;19.032;2023-02-19T09:27:03;97619.44;;;7.27;85.04
40918;BME280;26644;50.248;19.032;2023-02-19T09:30:09;97628.16;;;7.35;85.46
40918;BME280;26644;50.248;19.032;2023-02-19T09:33:15;97616.97;;;7.31;85.08
40918;BME280;26644;50.248;19.032;2023-02-19T09:36:23;97635.28;;;7.31;83.83
40918;BME280;26644;50.248;19.032;2023-02-19T09:39:28;97641.03;;;7.24;83.68
40918;BME280;26644;50.248;19.032;2023-02-19T09:42:34;97644.31;;;7.21;83.83
40918;BME280;26644;50.248;19.032;2023-02-19T09:45:39;97639.69;;;7.06;82.18
40918;BME280;26644;50.248;19.032;2023-02-19T09:48:45;97657.44;;;6.93;82.42
40918;BME280;26644;50.248;19.032;2023-02-19T09:51:57;97653.34;;;6.65;80.40
40918;BME280;26644;50.248;19.032;2023-02-19T09:55:15;97659.34;;;6.56;80.77
40918;BME280;26644;50.248;19.032;2023-02-19T09:58:31;97664.78;;;6.51;81.16
40918;BME280;26644;50.248;19.032;2023-02-19T10:01:40;97664.78;;;6.41;81.01
40918;BME280;26644;50.248;19.032;2023-02-19T10:04:49;97678.97;;;6.43;81.39
40918;BME280;26644;50.248;19.032;2023-02-19T10:07:59;97676.25;;;6.48;81.70
40918;BME280;26644;50.248;19.032;2023-02-19T10:11:11;97686.88;;;6.50;81.62
40918;BME280;26644;50.248;19.032;2023-02-19T10:14:25;97674.88;;;6.45;82.06
40918;BME280;26644;50.248;19.032;2023-02-19T10:17:39;97687.16;;;6.53;81.54
40918;BME280;26644;50.248;19.032;2023-02-19T10:20:45;97694.78;;;6.51;81.32
40918;BME280;26644;50.248;19.032;2023-02-19T10:23:58;97702.69;;;6.37;80.43
40918;BME280;26644;50.248;19.032;2023-02-19T10:27:11;97691.44;;;6.03;79.57
40918;BME280;26644;50.248;19.032;2023-02-19T10:30:20;97709.38;;;5.88;79.33
40918;BME280;26644;50.248;19.032;2023-02-19T10:33:28;97713.38;;;5.70;80.13
40918;BME280;26644;50.248;19.032;2023-02-19T10:36:37;97715.50;;;5.58;79.83
40918;BME280;26644;50.248;19.032;2023-02-19T10:39:49;97718.97;;;5.48;80.45
40918;BME280;26644;50.248;19.032;2023-02-19T10:42:57;97732.63;;;5.58;81.27
40918;BME280;26644;50.248;19.032;2023-02-19T10:46:13;97734.63;;;5.68;81.08
40918;BME280;26644;50.248;19.032;2023-02-19T10:49:25;97718.28;;;5.73;81.12
40918;BME280;26644;50.248;19.032;2023-02-19T10:52:34;97736.13;;;6.02;81.02
40918;BME280;26644;50.248;19.032;2023-02-19T10:55:42;97744.31;;;6.07;79.52
40918;BME280;26644;50.248;19.032;2023-02-19T10:58:48;97742.94;;;6.04;79.65
40918;BME280;26644;50.248;19.032;2023-02-19T11:01:57;97754.66;;;6.10;79.38
40918;BME280;26644;50.248;19.032;2023-02-19T11:05:15;97762.78;;;6.00;78.57
40918;BME280;26644;50.248;19.032;2023-02-19T11:08:23;97755.09;;;5.81;78.18
40918;BME280;26644;50.248;19.032;2023-02-19T11:11:35;97768.34;;;5.62;78.04
40918;BME280;26644;50.248;19.032;2023-02-19T11:14:44;97742.91;;;5.46;79.13
40918;BME280;26644;50.248;19.032;2023-02-19T11:18:03;97791.69;;;5.53;78.75
40918;BME280;26644;50.248;19.032;2023-02-19T11:21:28;97779.03;;;5.36;78.64
40918;BME280;26644;50.248;19.032;2023-02-19T11:24:37;97791.75;;;5.25;78.23
40918;BME280;26644;50.248;19.032;2023-02-19T11:27:57;97804.00;;;5.23;78.62
40918;BME280;26644;50.248;19.032;2023-02-19T11:31:22;97784.63;;;5.14;78.13
40918;BME280;26644;50.248;19.032;2023-02-19T11:34:31;97803.72;;;5.24;78.23
40918;BME280;26644;50.248;19.032;2023-02-19T11:37:53;97808.97;;;5.31;77.87
40918;BME280;26644;50.248;19.032;2023-02-19T11:41:12;97813.34;;;5.37;77.72
40918;BME280;26644;50.248;19.032;2023-02-19T11:44:49;97820.53;;;5.49;77.76
40918;BME280;26644;50.248;19.032;2023-02-19T11:48:18;97815.84;;;5.44;76.74
40918;BME280;26644;50.248;19.032;2023-02-19T11:51:59;97831.91;;;5.40;76.42
40918;BME280;26644;50.248;19.032;2023-02-19T11:55:22;97848.19;;;5.35;77.04
40918;BME280;26644;50.248;19.032;2023-02-19T11:58:58;97852.31;;;5.38;77.09
40918;BME280;26644;50.248;19.032;2023-02-19T12:06:17;97845.91;;;5.22;77.30
40918;BME280;26644;50.248;19.032;2023-02-19T12:09:47;97862.56;;;5.31;77.77
40918;BME280;26644;50.248;19.032;2023-02-19T12:13:11;97827.97;;;4.93;77.15
40918;BME280;26644;50.248;19.032;2023-02-19T12:16:33;97867.06;;;5.15;77.84
40918;BME280;26644;50.248;19.032;2023-02-19T12:20:04;97875.59;;;5.23;78.61
40918;BME280;26644;50.248;19.032;2023-02-19T12:23:41;97874.22;;;5.21;78.30
40918;BME280;26644;50.248;19.032;2023-02-19T12:27:08;97822.25;;;4.95;78.60
40918;BME280;26644;50.248;19.032;2023-02-19T12:30:36;97897.19;;;5.35;78.88
40918;BME280;26644;50.248;19.032;2023-02-19T12:34:28;97889.31;;;5.39;78.34
40918;BME280;26644;50.248;19.032;2023-02-19T12:37:58;97890.91;;;5.35;78.31
40918;BME280;26644;50.248;19.032;2023-02-19T12:41:23;97895.25;;;5.31;78.15
40918;BME280;26644;50.248;19.032;2023-02-19T12:44:41;97907.34;;;5.18;77.69
40918;BME280;26644;50.248;19.032;2023-02-19T12:48:00;97898.94;;;4.92;77.38
40918;BME280;26644;50.248;19.032;2023-02-19T12:51:21;97898.16;;;4.69;77.27
40918;BME280;26644;50.248;19.032;2023-02-19T12:54:39;97903.47;;;4.59;77.90
40918;BME280;26644;50.248;19.032;2023-02-19T12:57:48;97914.34;;;4.59;77.75
40918;BME280;26644;50.248;19.032;2023-02-19T13:00:57;97916.91;;;4.49;77.88
40918;BME280;26644;50.248;19.032;2023-02-19T13:04:17;97938.09;;;4.47;78.85
40918;BME280;26644;50.248;19.032;2023-02-19T13:07:36;97930.59;;;4.37;77.51
40918;BME280;26644;50.248;19.032;2023-02-19T13:10:55;97936.09;;;4.42;77.28
40918;BME280;26644;50.248;19.032;2023-02-19T13:14:16;97934.34;;;4.53;77.20
40918;BME280;26644;50.248;19.032;2023-02-19T13:17:37;97927.13;;;4.58;76.77
40918;BME280;26644;50.248;19.032;2023-02-19T13:20:50;97938.41;;;4.50;74.62
40918;BME280;26644;50.248;19.032;2023-02-19T13:23:56;97953.69;;;4.56;73.61
40918;BME280;26644;50.248;19.032;2023-02-19T13:27:22;97975.72;;;4.55;72.98
40918;BME280;26644;50.248;19.032;2023-02-19T13:31:01;97978.59;;;4.48;71.88
40918;BME280;26644;50.248;19.032;2023-02-19T13:34:31;97974.50;;;4.45;72.00
40918;BME280;26644;50.248;19.032;2023-02-19T13:37:52;97987.03;;;4.47;71.85
40918;BME280;26644;50.248;19.032;2023-02-19T13:41:00;97992.31;;;4.36;71.43
40918;BME280;26644;50.248;19.032;2023-02-19T13:44:22;97992.56;;;4.35;71.91
40918;BME280;26644;50.248;19.032;2023-02-19T13:47:48;98004.97;;;4.48;73.02
40918;BME280;26644;50.248;19.032;2023-02-19T13:51:37;97999.53;;;4.48;72.05
40918;BME280;26644;50.248;19.032;2023-02-19T13:58:56;98017.47;;;4.49;70.27
40918;BME280;26644;50.248;19.032;2023-02-19T14:02:25;98021.78;;;4.44;69.33
40918;BME280;26644;50.248;19.032;2023-02-19T14:05:57;98028.78;;;4.40;68.65
40918;BME280;26644;50.248;19.032;2023-02-19T14:12:50;98036.69;;;4.42;69.17
40918;BME280;26644;50.248;19.032;2023-02-19T14:15:55;98031.06;;;4.49;68.58
40918;BME280;26644;50.248;19.032;2023-02-19T14:19:03;98036.31;;;4.55;68.14
40918;BME280;26644;50.248;19.032;2023-02-19T14:22:46;98047.56;;;4.59;68.30
40918;BME280;26644;50.248;19.032;2023-02-19T14:26:06;98053.66;;;4.66;68.29
40918;BME280;26644;50.248;19.032;2023-02-19T14:29:14;98059.66;;;4.68;67.59
40918;BME280;26644;50.248;19.032;2023-02-19T14:32:20;98065.09;;;4.68;67.40
40918;BME280;26644;50.248;19.032;2023-02-19T14:35:34;98067.25;;;4.66;67.38
40918;BME280;26644;50.248;19.032;2023-02-19T14:38:47;98070.16;;;4.59;67.29
40918;BME280;26644;50.248;19.032;2023-02-19T14:41:59;98075.72;;;4.53;67.69
40918;BME280;26644;50.248;19.032;2023-02-19T14:45:09;98051.75;;;4.33;68.16
40918;BME280;26644;50.248;19.032;2023-02-19T14:48:19;98081.50;;;4.39;68.07
40918;BME280;26644;50.248;19.032;2023-02-19T14:51:36;98080.19;;;4.42;68.43
40918;BME280;26644;50.248;19.032;2023-02-19T14:54:52;98070.16;;;4.42;68.46
40918;BME280;26644;50.248;19.032;2023-02-19T14:58:05;98085.78;;;4.52;68.34
40918;BME280;26644;50.248;19.032;2023-02-19T15:01:25;98087.84;;;4.45;67.96
40918;BME280;26644;50.248;19.032;2023-02-19T15:04:35;98080.44;;;4.40;67.63
40918;BME280;26644;50.248;19.032;2023-02-19T15:07:44;98084.78;;;4.24;66.23
40918;BME280;26644;50.248;19.032;2023-02-19T15:10:49;98070.72;;;4.10;65.63
40918;BME280;26644;50.248;19.032;2023-02-19T15:13:59;98102.00;;;4.30;66.21
40918;BME280;26644;50.248;19.032;2023-02-19T15:17:07;98092.78;;;4.31;66.06
40918;BME280;26644;50.248;19.032;2023-02-19T15:20:20;98111.81;;;4.31;65.86
40918;BME280;26644;50.248;19.032;2023-02-19T15:23:32;98115.50;;;4.25;66.00
40918;BME280;26644;50.248;19.032;2023-02-19T15:26:41;98131.81;;;4.25;65.80
40918;BME280;26644;50.248;19.032;2023-02-19T15:29:52;98126.38;;;4.25;65.37
40918;BME280;26644;50.248;19.032;2023-02-19T15:32:59;98126.63;;;4.23;65.39
40918;BME280;26644;50.248;19.032;2023-02-19T15:36:08;98131.97;;;4.18;64.88
40918;BME280;26644;50.248;19.032;2023-02-19T15:39:23;98137.41;;;4.18;64.48
40918;BME280;26644;50.248;19.032;2023-02-19T15:42:34;98122.16;;;4.00;64.61
40918;BME280;26644;50.248;19.032;2023-02-19T15:45:46;98149.72;;;4.09;64.96
40918;BME280;26644;50.248;19.032;2023-02-19T15:49:00;98160.59;;;4.09;64.49
40918;BME280;26644;50.248;19.032;2023-02-19T15:52:21;98166.03;;;4.09;64.38
40918;BME280;26644;50.248;19.032;2023-02-19T15:55:41;98160.72;;;3.85;63.82
40918;BME280;26644;50.248;19.032;2023-02-19T15:58:56;98166.97;;;3.86;64.44
40918;BME280;26644;50.248;19.032;2023-02-19T16:02:10;98186.09;;;3.91;64.63
40918;BME280;26644;50.248;19.032;2023-02-19T16:05:24;98202.94;;;3.93;65.05
40918;BME280;26644;50.248;19.032;2023-02-19T16:08:33;98202.63;;;3.89;64.84
40918;BME280;26644;50.248;19.032;2023-02-19T16:11:49;98206.41;;;3.88;65.29
40918;BME280;26644;50.248;19.032;2023-02-19T16:14:56;98218.78;;;3.96;65.25
40918;BME280;26644;50.248;19.032;2023-02-19T16:18:01;98211.94;;;3.93;65.27
40918;BME280;26644;50.248;19.032;2023-02-19T16:21:08;98229.97;;;4.00;65.32
40918;BME280;26644;50.248;19.032;2023-02-19T16:24:20;98236.97;;;3.95;64.77
40918;BME280;26644;50.248;19.032;2023-02-19T16:27:35;98218.34;;;3.87;64.40
40918;BME280;26644;50.248;19.032;2023-02-19T16:30:43;98239.94;;;3.94;64.31
40918;BME280;26644;50.248;19.032;2023-02-19T16:33:49;98245.34;;;3.94;63.89
40918;BME280;26644;50.248;19.032;2023-02-19T16:36:55;98261.16;;;3.97;63.98
40918;BME280;26644;50.248;19.032;2023-02-19T16:43:54;98264.25;;;3.89;63.57
40918;BME280;26644;50.248;19.032;2023-02-19T16:47:05;98282.56;;;3.93;63.29
40918;BME280;26644;50.248;19.032;2023-02-19T16:50:19;98304.88;;;3.95;63.39
40918;BME280;26644;50.248;19.032;2023-02-19T16:53:27;98317.41;;;3.97;63.48
40918;BME280;26644;50.248;19.032;2023-02-19T16:56:34;98310.53;;;3.94;63.36
40918;BME280;26644;50.248;19.032;2023-02-19T16:59:42;98320.84;;;3.92;63.41
40918;BME280;26644;50.248;19.032;2023-02-19T17:02:49;98322.72;;;3.91;63.21
40918;BME280;26644;50.248;19.032;2023-02-19T17:05:59;98340.06;;;3.90;63.62
40918;BME280;26644;50.248;19.032;2023-02-19T17:09:05;98329.69;;;3.87;63.57
40918;BME280;26644;50.248;19.032;2023-02-19T17:12:13;98343.88;;;3.89;63.16